Terminal Aerodrome Forecast
Issued by NWS Omaha/Valley, NE

Home | Current Version | Previous Version | Text Only | Print | Product List | Glossary On
Versions: 1 2 3 4 5 6 7 8 9 10 11 12 13 14 15 16 17 18 19 20 21
000
FTUS43 KOAX 282320
TAFOFK
TAF
KOFK 282320Z 2900/2924 03013KT P6SM SCT025 BKN040
     FM290200 02008KT P6SM OVC040
     FM291200 03012KT P6SM BKN080
     FM291800 03016G24KT P6SM BKN025 OVC040
      TEMPO 2920/2924 4SM -RA=

USA.gov is the U.S. government's official web portal to all federal, state and local government web resources and services.